sensor_id;sensor_type;location;lat;lon;timestamp;temperature;humidity
29031;DHT22;16122;50.236;11.734;2023-02-28T00:00:28;16.80;67.10
29031;DHT22;16122;50.236;11.734;2023-02-28T00:02:53;16.80;67.10
29031;DHT22;16122;50.236;11.734;2023-02-28T00:05:21;16.80;67.10
29031;DHT22;16122;50.236;11.734;2023-02-28T00:07:48;16.80;67.10
29031;DHT22;16122;50.236;11.734;2023-02-28T00:10:23;16.70;66.90
29031;DHT22;16122;50.236;11.734;2023-02-28T00:12:50;16.80;67.10
29031;DHT22;16122;50.236;11.734;2023-02-28T00:15:17;16.80;67.00
29031;DHT22;16122;50.236;11.734;2023-02-28T00:17:43;16.80;66.80
29031;DHT22;16122;50.236;11.734;2023-02-28T00:20:10;16.80;66.90
29031;DHT22;16122;50.236;11.734;2023-02-28T00:22:45;16.80;66.90
29031;DHT22;16122;50.236;11.734;2023-02-28T00:25:14;16.80;67.00
29031;DHT22;16122;50.236;11.734;2023-02-28T00:27:41;16.80;66.80
29031;DHT22;16122;50.236;11.734;2023-02-28T00:30:10;16.90;66.90
29031;DHT22;16122;50.236;11.734;2023-02-28T00:32:37;16.80;66.80
29031;DHT22;16122;50.236;11.734;2023-02-28T00:35:03;16.80;66.70
29031;DHT22;16122;50.236;11.734;2023-02-28T00:37:29;16.80;66.70
29031;DHT22;16122;50.236;11.734;2023-02-28T00:39:56;16.90;66.70
29031;DHT22;16122;50.236;11.734;2023-02-28T00:42:23;16.80;66.50
29031;DHT22;16122;50.236;11.734;2023-02-28T00:44:49;16.80;66.50
29031;DHT22;16122;50.236;11.734;2023-02-28T00:47:15;16.80;66.40
29031;DHT22;16122;50.236;11.734;2023-02-28T00:49:42;16.80;66.40
29031;DHT22;16122;50.236;11.734;2023-02-28T00:52:08;16.80;66.40
29031;DHT22;16122;50.236;11.734;2023-02-28T00:54:35;16.80;66.30
29031;DHT22;16122;50.236;11.734;2023-02-28T00:57:00;16.80;66.30
29031;DHT22;16122;50.236;11.734;2023-02-28T00:59:26;16.80;66.30
29031;DHT22;16122;50.236;11.734;2023-02-28T01:01:52;16.80;66.30
29031;DHT22;16122;50.236;11.734;2023-02-28T01:04:18;16.80;66.20
29031;DHT22;16122;50.236;11.734;2023-02-28T01:06:44;16.80;66.30
29031;DHT22;16122;50.236;11.734;2023-02-28T01:09:10;16.80;66.20
29031;DHT22;16122;50.236;11.734;2023-02-28T01:11:37;16.80;66.30
29031;DHT22;16122;50.236;11.734;2023-02-28T01:14:03;16.80;66.30
29031;DHT22;16122;50.236;11.734;2023-02-28T01:16:30;16.80;66.30
29031;DHT22;16122;50.236;11.734;2023-02-28T01:18:56;16.80;66.20
29031;DHT22;16122;50.236;11.734;2023-02-28T01:21:21;16.80;66.20
29031;DHT22;16122;50.236;11.734;2023-02-28T01:23:48;16.80;66.10
29031;DHT22;16122;50.236;11.734;2023-02-28T01:26:20;16.70;66.10
29031;DHT22;16122;50.236;11.734;2023-02-28T01:28:47;16.80;66.10
29031;DHT22;16122;50.236;11.734;2023-02-28T01:31:13;16.80;66.10
29031;DHT22;16122;50.236;11.734;2023-02-28T01:33:40;16.80;66.00
29031;DHT22;16122;50.236;11.734;2023-02-28T01:36:14;16.80;66.00
29031;DHT22;16122;50.236;11.734;2023-02-28T01:38:41;16.70;65.90
29031;DHT22;16122;50.236;11.734;2023-02-28T01:41:09;16.70;65.80
29031;DHT22;16122;50.236;11.734;2023-02-28T01:46:12;16.80;66.00
29031;DHT22;16122;50.236;11.734;2023-02-28T01:48:42;16.70;65.80
29031;DHT22;16122;50.236;11.734;2023-02-28T01:51:17;16.80;65.80
29031;DHT22;16122;50.236;11.734;2023-02-28T01:53:51;16.70;65.60
29031;DHT22;16122;50.236;11.734;2023-02-28T01:56:22;16.80;65.70
29031;DHT22;16122;50.236;11.734;2023-02-28T01:58:51;16.80;65.70
29031;DHT22;16122;50.236;11.734;2023-02-28T02:01:18;16.70;65.70
29031;DHT22;16122;50.236;11.734;2023-02-28T02:03:54;16.80;65.80
29031;DHT22;16122;50.236;11.734;2023-02-28T02:06:27;16.80;65.70
29031;DHT22;16122;50.236;11.734;2023-02-28T02:08:54;16.80;65.70
29031;DHT22;16122;50.236;11.734;2023-02-28T02:11:22;16.80;65.70
29031;DHT22;16122;50.236;11.734;2023-02-28T02:14:47;16.80;65.80
29031;DHT22;16122;50.236;11.734;2023-02-28T02:17:08;16.80;65.70
29031;DHT22;16122;50.236;11.734;2023-02-28T02:20:15;16.80;65.50
29031;DHT22;16122;50.236;11.734;2023-02-28T02:28:21;16.80;65.40
29031;DHT22;16122;50.236;11.734;2023-02-28T02:31:19;16.80;65.40
29031;DHT22;16122;50.236;11.734;2023-02-28T02:37:14;16.70;65.30
29031;DHT22;16122;50.236;11.734;2023-02-28T02:40:10;16.70;65.20
29031;DHT22;16122;50.236;11.734;2023-02-28T02:42:55;16.80;65.40
29031;DHT22;16122;50.236;11.734;2023-02-28T02:45:44;16.70;65.30
29031;DHT22;16122;50.236;11.734;2023-02-28T02:48:15;16.70;65.30
29031;DHT22;16122;50.236;11.734;2023-02-28T02:50:55;16.70;65.30
29031;DHT22;16122;50.236;11.734;2023-02-28T02:53:37;16.80;65.50
29031;DHT22;16122;50.236;11.734;2023-02-28T02:56:05;16.80;65.30
29031;DHT22;16122;50.236;11.734;2023-02-28T02:58:36;16.70;65.20
29031;DHT22;16122;50.236;11.734;2023-02-28T03:01:12;16.70;65.30
29031;DHT22;16122;50.236;11.734;2023-02-28T03:03:40;16.80;65.30
29031;DHT22;16122;50.236;11.734;2023-02-28T03:06:06;16.80;65.20
29031;DHT22;16122;50.236;11.734;2023-02-28T03:08:37;16.70;65.00
29031;DHT22;16122;50.236;11.734;2023-02-28T03:11:11;16.70;65.10
29031;DHT22;16122;50.236;11.734;2023-02-28T03:13:52;16.70;65.00
29031;DHT22;16122;50.236;11.734;2023-02-28T03:25:01;16.70;65.10
29031;DHT22;16122;50.236;11.734;2023-02-28T03:27:41;16.70;64.90
29031;DHT22;16122;50.236;11.734;2023-02-28T03:35:40;16.80;65.00
29031;DHT22;16122;50.236;11.734;2023-02-28T03:38:16;16.70;64.90
29031;DHT22;16122;50.236;11.734;2023-02-28T03:40:50;16.70;65.00
29031;DHT22;16122;50.236;11.734;2023-02-28T03:43:23;16.70;64.80
29031;DHT22;16122;50.236;11.734;2023-02-28T03:45:51;16.70;64.80
29031;DHT22;16122;50.236;11.734;2023-02-28T03:48:31;16.70;64.80
29031;DHT22;16122;50.236;11.734;2023-02-28T03:50:59;16.70;64.90
29031;DHT22;16122;50.236;11.734;2023-02-28T03:53:29;16.70;64.80
29031;DHT22;16122;50.236;11.734;2023-02-28T03:55:59;16.70;64.80
29031;DHT22;16122;50.236;11.734;2023-02-28T04:01:23;16.70;64.80
29031;DHT22;16122;50.236;11.734;2023-02-28T04:03:51;16.70;65.10
29031;DHT22;16122;50.236;11.734;2023-02-28T04:06:22;16.70;64.90
29031;DHT22;16122;50.236;11.734;2023-02-28T04:08:49;16.70;64.80
29031;DHT22;16122;50.236;11.734;2023-02-28T04:11:23;16.70;64.80
29031;DHT22;16122;50.236;11.734;2023-02-28T04:13:52;16.60;64.80
29031;DHT22;16122;50.236;11.734;2023-02-28T04:16:19;16.70;64.90
29031;DHT22;16122;50.236;11.734;2023-02-28T04:18:44;16.70;64.90
29031;DHT22;16122;50.236;11.734;2023-02-28T04:21:11;16.70;64.80
29031;DHT22;16122;50.236;11.734;2023-02-28T04:23:37;16.70;64.80
29031;DHT22;16122;50.236;11.734;2023-02-28T04:26:03;16.70;64.50
29031;DHT22;16122;50.236;11.734;2023-02-28T04:28:29;16.70;64.60
29031;DHT22;16122;50.236;11.734;2023-02-28T04:31:03;16.70;64.50
29031;DHT22;16122;50.236;11.734;2023-02-28T04:33:31;16.70;64.30
29031;DHT22;16122;50.236;11.734;2023-02-28T04:36:15;16.70;64.30
29031;DHT22;16122;50.236;11.734;2023-02-28T04:38:43;16.70;64.20
29031;DHT22;16122;50.236;11.734;2023-02-28T04:41:10;16.70;64.30
29031;DHT22;16122;50.236;11.734;2023-02-28T04:43:35;16.70;64.30
29031;DHT22;16122;50.236;11.734;2023-02-28T04:46:03;16.60;64.00
29031;DHT22;16122;50.236;11.734;2023-02-28T04:48:32;16.70;64.10
29031;DHT22;16122;50.236;11.734;2023-02-28T04:51:05;16.70;64.00
29031;DHT22;16122;50.236;11.734;2023-02-28T04:53:31;16.60;63.80
29031;DHT22;16122;50.236;11.734;2023-02-28T04:55:58;16.60;63.80
29031;DHT22;16122;50.236;11.734;2023-02-28T04:58:24;16.60;63.80
29031;DHT22;16122;50.236;11.734;2023-02-28T05:00:53;16.70;64.00
29031;DHT22;16122;50.236;11.734;2023-02-28T05:03:20;16.60;64.10
29031;DHT22;16122;50.236;11.734;2023-02-28T05:05:47;16.60;63.80
29031;DHT22;16122;50.236;11.734;2023-02-28T05:08:13;16.60;63.70
29031;DHT22;16122;50.236;11.734;2023-02-28T05:10:39;16.60;63.80
29031;DHT22;16122;50.236;11.734;2023-02-28T05:13:05;16.60;63.80
29031;DHT22;16122;50.236;11.734;2023-02-28T05:15:31;16.60;63.90
29031;DHT22;16122;50.236;11.734;2023-02-28T05:17:57;16.60;63.90
29031;DHT22;16122;50.236;11.734;2023-02-28T05:20:23;16.60;64.00
29031;DHT22;16122;50.236;11.734;2023-02-28T05:22:49;16.70;64.20
29031;DHT22;16122;50.236;11.734;2023-02-28T05:25:17;16.70;64.50
29031;DHT22;16122;50.236;11.734;2023-02-28T05:27:44;16.60;64.60
29031;DHT22;16122;50.236;11.734;2023-02-28T05:30:10;16.70;65.00
29031;DHT22;16122;50.236;11.734;2023-02-28T05:32:40;16.60;65.10
29031;DHT22;16122;50.236;11.734;2023-02-28T05:35:10;16.60;65.30
29031;DHT22;16122;50.236;11.734;2023-02-28T05:37:37;16.70;65.40
29031;DHT22;16122;50.236;11.734;2023-02-28T05:40:03;16.60;65.40
29031;DHT22;16122;50.236;11.734;2023-02-28T05:42:33;16.60;65.50
29031;DHT22;16122;50.236;11.734;2023-02-28T05:44:59;16.60;65.40
29031;DHT22;16122;50.236;11.734;2023-02-28T05:47:24;16.60;65.40
29031;DHT22;16122;50.236;11.734;2023-02-28T05:49:50;16.60;65.50
29031;DHT22;16122;50.236;11.734;2023-02-28T05:52:17;16.60;65.60
29031;DHT22;16122;50.236;11.734;2023-02-28T05:54:43;16.60;65.50
29031;DHT22;16122;50.236;11.734;2023-02-28T05:57:08;16.70;65.70
29031;DHT22;16122;50.236;11.734;2023-02-28T05:59:34;16.60;65.60
29031;DHT22;16122;50.236;11.734;2023-02-28T06:02:00;16.70;65.80
29031;DHT22;16122;50.236;11.734;2023-02-28T06:04:26;16.60;65.60
29031;DHT22;16122;50.236;11.734;2023-02-28T06:06:53;16.60;65.70
29031;DHT22;16122;50.236;11.734;2023-02-28T06:09:19;16.60;65.80
29031;DHT22;16122;50.236;11.734;2023-02-28T06:11:46;16.60;65.80
29031;DHT22;16122;50.236;11.734;2023-02-28T06:14:16;16.60;65.80
29031;DHT22;16122;50.236;11.734;2023-02-28T06:16:42;16.60;65.90
29031;DHT22;16122;50.236;11.734;2023-02-28T06:19:09;16.60;65.90
29031;DHT22;16122;50.236;11.734;2023-02-28T06:21:35;16.50;65.90
29031;DHT22;16122;50.236;11.734;2023-02-28T06:24:02;16.50;65.80
29031;DHT22;16122;50.236;11.734;2023-02-28T06:26:29;16.60;65.90
29031;DHT22;16122;50.236;11.734;2023-02-28T06:28:56;16.60;65.80
29031;DHT22;16122;50.236;11.734;2023-02-28T06:31:22;16.60;65.80
29031;DHT22;16122;50.236;11.734;2023-02-28T06:33:49;16.60;66.60
29031;DHT22;16122;50.236;11.734;2023-02-28T06:36:16;16.60;65.80
29031;DHT22;16122;50.236;11.734;2023-02-28T06:38:43;16.60;66.00
29031;DHT22;16122;50.236;11.734;2023-02-28T06:41:08;16.60;65.90
29031;DHT22;16122;50.236;11.734;2023-02-28T06:43:40;16.60;65.90
29031;DHT22;16122;50.236;11.734;2023-02-28T06:46:08;16.60;65.90
29031;DHT22;16122;50.236;11.734;2023-02-28T06:48:34;16.60;65.50
29031;DHT22;16122;50.236;11.734;2023-02-28T06:51:12;16.60;65.50
29031;DHT22;16122;50.236;11.734;2023-02-28T06:53:38;16.70;65.50
29031;DHT22;16122;50.236;11.734;2023-02-28T06:56:10;16.60;65.70
29031;DHT22;16122;50.236;11.734;2023-02-28T06:58:36;16.60;65.80
29031;DHT22;16122;50.236;11.734;2023-02-28T07:01:03;16.70;66.00
29031;DHT22;16122;50.236;11.734;2023-02-28T07:03:30;16.60;65.80
29031;DHT22;16122;50.236;11.734;2023-02-28T07:05:56;16.60;65.80
29031;DHT22;16122;50.236;11.734;2023-02-28T07:08:23;16.70;65.90
29031;DHT22;16122;50.236;11.734;2023-02-28T07:10:52;16.60;65.90
29031;DHT22;16122;50.236;11.734;2023-02-28T07:13:18;16.70;65.90
29031;DHT22;16122;50.236;11.734;2023-02-28T07:15:44;16.60;65.90
29031;DHT22;16122;50.236;11.734;2023-02-28T07:18:10;16.60;65.80
29031;DHT22;16122;50.236;11.734;2023-02-28T07:20:36;16.60;65.80
29031;DHT22;16122;50.236;11.734;2023-02-28T07:23:01;16.60;65.80
29031;DHT22;16122;50.236;11.734;2023-02-28T07:25:28;16.70;65.90
29031;DHT22;16122;50.236;11.734;2023-02-28T07:27:55;16.70;66.10
29031;DHT22;16122;50.236;11.734;2023-02-28T07:30:21;16.60;66.00
29031;DHT22;16122;50.236;11.734;2023-02-28T07:32:47;16.70;66.10
29031;DHT22;16122;50.236;11.734;2023-02-28T07:35:13;16.70;66.30
29031;DHT22;16122;50.236;11.734;2023-02-28T07:37:41;16.60;66.10
29031;DHT22;16122;50.236;11.734;2023-02-28T07:40:10;16.70;65.90
29031;DHT22;16122;50.236;11.734;2023-02-28T07:42:39;16.70;66.00
29031;DHT22;16122;50.236;11.734;2023-02-28T07:45:06;16.70;66.20
29031;DHT22;16122;50.236;11.734;2023-02-28T07:47:32;16.70;66.20
29031;DHT22;16122;50.236;11.734;2023-02-28T07:49:58;16.70;66.10
29031;DHT22;16122;50.236;11.734;2023-02-28T07:52:24;16.70;66.30
29031;DHT22;16122;50.236;11.734;2023-02-28T07:54:51;16.70;66.20
29031;DHT22;16122;50.236;11.734;2023-02-28T07:57:16;16.80;66.40
29031;DHT22;16122;50.236;11.734;2023-02-28T07:59:43;16.80;66.40
29031;DHT22;16122;50.236;11.734;2023-02-28T08:02:16;16.80;66.30
29031;DHT22;16122;50.236;11.734;2023-02-28T08:04:43;16.80;66.30
29031;DHT22;16122;50.236;11.734;2023-02-28T08:07:09;16.70;66.50
29031;DHT22;16122;50.236;11.734;2023-02-28T08:09:39;16.70;66.60
29031;DHT22;16122;50.236;11.734;2023-02-28T08:12:07;16.70;66.50
29031;DHT22;16122;50.236;11.734;2023-02-28T08:14:33;16.80;66.50
29031;DHT22;16122;50.236;11.734;2023-02-28T08:16:59;16.80;66.50
29031;DHT22;16122;50.236;11.734;2023-02-28T08:19:26;16.80;66.60
29031;DHT22;16122;50.236;11.734;2023-02-28T08:21:51;16.80;66.50
29031;DHT22;16122;50.236;11.734;2023-02-28T08:24:17;16.80;66.40
29031;DHT22;16122;50.236;11.734;2023-02-28T08:26:43;16.80;66.40
29031;DHT22;16122;50.236;11.734;2023-02-28T08:29:09;16.80;66.20
29031;DHT22;16122;50.236;11.734;2023-02-28T08:31:34;16.80;66.00
29031;DHT22;16122;50.236;11.734;2023-02-28T08:34:11;16.80;66.00
29031;DHT22;16122;50.236;11.734;2023-02-28T08:36:38;16.80;65.90
29031;DHT22;16122;50.236;11.734;2023-02-28T08:39:04;16.90;65.70
29031;DHT22;16122;50.236;11.734;2023-02-28T08:41:31;16.80;65.70
29031;DHT22;16122;50.236;11.734;2023-02-28T08:43:56;16.90;65.70
29031;DHT22;16122;50.236;11.734;2023-02-28T08:46:23;16.90;66.50
29031;DHT22;16122;50.236;11.734;2023-02-28T08:48:52;16.90;65.50
29031;DHT22;16122;50.236;11.734;2023-02-28T08:51:18;17.00;65.60
29031;DHT22;16122;50.236;11.734;2023-02-28T08:53:47;16.90;65.30
29031;DHT22;16122;50.236;11.734;2023-02-28T08:56:15;17.00;65.50
29031;DHT22;16122;50.236;11.734;2023-02-28T08:58:42;16.90;65.80
29031;DHT22;16122;50.236;11.734;2023-02-28T09:01:11;16.90;66.60
29031;DHT22;16122;50.236;11.734;2023-02-28T09:03:38;16.90;67.40
29031;DHT22;16122;50.236;11.734;2023-02-28T09:06:04;16.90;67.70
29031;DHT22;16122;50.236;11.734;2023-02-28T09:08:30;16.90;67.90
29031;DHT22;16122;50.236;11.734;2023-02-28T09:10:57;16.90;68.00
29031;DHT22;16122;50.236;11.734;2023-02-28T09:13:25;16.90;68.00
29031;DHT22;16122;50.236;11.734;2023-02-28T09:15:51;16.90;67.40
29031;DHT22;16122;50.236;11.734;2023-02-28T09:18:17;17.00;67.20
29031;DHT22;16122;50.236;11.734;2023-02-28T09:20:43;17.00;66.80
29031;DHT22;16122;50.236;11.734;2023-02-28T09:23:11;17.00;66.50
29031;DHT22;16122;50.236;11.734;2023-02-28T09:25:37;17.00;66.30
29031;DHT22;16122;50.236;11.734;2023-02-28T09:28:03;17.00;67.50
29031;DHT22;16122;50.236;11.734;2023-02-28T09:30:30;17.00;68.60
29031;DHT22;16122;50.236;11.734;2023-02-28T09:32:56;17.00;68.70
29031;DHT22;16122;50.236;11.734;2023-02-28T09:35:23;17.00;68.60
29031;DHT22;16122;50.236;11.734;2023-02-28T09:37:51;16.90;68.50
29031;DHT22;16122;50.236;11.734;2023-02-28T09:40:22;17.00;68.50
29031;DHT22;16122;50.236;11.734;2023-02-28T09:42:51;17.00;68.60
29031;DHT22;16122;50.236;11.734;2023-02-28T09:47:51;17.00;68.50
29031;DHT22;16122;50.236;11.734;2023-02-28T09:50:34;17.00;68.40
29031;DHT22;16122;50.236;11.734;2023-02-28T09:53:03;17.00;68.30
29031;DHT22;16122;50.236;11.734;2023-02-28T09:55:43;17.00;68.40
29031;DHT22;16122;50.236;11.734;2023-02-28T09:59:01;16.90;68.30
29031;DHT22;16122;50.236;11.734;2023-02-28T10:01:18;16.90;68.40
29031;DHT22;16122;50.236;11.734;2023-02-28T10:04:02;17.00;68.40
29031;DHT22;16122;50.236;11.734;2023-02-28T10:06:33;17.10;68.50
29031;DHT22;16122;50.236;11.734;2023-02-28T10:09:13;17.00;68.30
29031;DHT22;16122;50.236;11.734;2023-02-28T10:11:41;16.90;68.40
29031;DHT22;16122;50.236;11.734;2023-02-28T10:14:17;17.10;68.60
29031;DHT22;16122;50.236;11.734;2023-02-28T10:16:50;17.00;68.50
29031;DHT22;16122;50.236;11.734;2023-02-28T10:21:59;17.00;67.60
29031;DHT22;16122;50.236;11.734;2023-02-28T10:27:00;17.00;67.30
29031;DHT22;16122;50.236;11.734;2023-02-28T10:29:31;17.00;67.40
29031;DHT22;16122;50.236;11.734;2023-02-28T10:32:02;17.00;67.30
29031;DHT22;16122;50.236;11.734;2023-02-28T10:34:29;17.00;67.40
29031;DHT22;16122;50.236;11.734;2023-02-28T10:36:55;17.10;67.50
29031;DHT22;16122;50.236;11.734;2023-02-28T10:42:01;17.00;67.40
29031;DHT22;16122;50.236;11.734;2023-02-28T10:44:27;17.10;67.60
29031;DHT22;16122;50.236;11.734;2023-02-28T10:46:52;17.10;67.20
29031;DHT22;16122;50.236;11.734;2023-02-28T10:49:26;17.10;67.10
29031;DHT22;16122;50.236;11.734;2023-02-28T10:51:55;17.10;67.00
29031;DHT22;16122;50.236;11.734;2023-02-28T10:54:34;17.10;67.00
29031;DHT22;16122;50.236;11.734;2023-02-28T10:59:44;17.10;66.90
29031;DHT22;16122;50.236;11.734;2023-02-28T11:02:40;17.10;66.70
29031;DHT22;16122;50.236;11.734;2023-02-28T11:05:30;17.10;67.00
29031;DHT22;16122;50.236;11.734;2023-02-28T11:08:17;17.10;67.10
29031;DHT22;16122;50.236;11.734;2023-02-28T11:10:57;17.10;67.20
29031;DHT22;16122;50.236;11.734;2023-02-28T11:13:44;17.10;67.20
29031;DHT22;16122;50.236;11.734;2023-02-28T11:16:12;17.10;67.40
29031;DHT22;16122;50.236;11.734;2023-02-28T11:18:55;17.10;67.50
29031;DHT22;16122;50.236;11.734;2023-02-28T11:21:27;17.10;67.60
29031;DHT22;16122;50.236;11.734;2023-02-28T11:24:27;17.10;67.60
29031;DHT22;16122;50.236;11.734;2023-02-28T11:26:54;17.10;67.40
29031;DHT22;16122;50.236;11.734;2023-02-28T11:34:31;17.10;50.00
29031;DHT22;16122;50.236;11.734;2023-02-28T11:36:59;17.00;50.10
29031;DHT22;16122;50.236;11.734;2023-02-28T11:39:27;16.90;50.30
29031;DHT22;16122;50.236;11.734;2023-02-28T11:42:07;16.90;50.20
29031;DHT22;16122;50.236;11.734;2023-02-28T11:44:50;16.90;50.10
29031;DHT22;16122;50.236;11.734;2023-02-28T11:54:48;16.90;50.00
29031;DHT22;16122;50.236;11.734;2023-02-28T12:02:29;16.90;49.80
29031;DHT22;16122;50.236;11.734;2023-02-28T12:10:17;16.80;49.70
29031;DHT22;16122;50.236;11.734;2023-02-28T12:12:58;16.90;49.70
29031;DHT22;16122;50.236;11.734;2023-02-28T12:18:10;16.90;49.80
29031;DHT22;16122;50.236;11.734;2023-02-28T12:20:59;16.90;49.80
29031;DHT22;16122;50.236;11.734;2023-02-28T12:26:16;16.90;49.60
29031;DHT22;16122;50.236;11.734;2023-02-28T12:28:46;16.90;49.60
29031;DHT22;16122;50.236;11.734;2023-02-28T12:31:21;16.90;49.60
29031;DHT22;16122;50.236;11.734;2023-02-28T12:33:53;16.80;49.70
29031;DHT22;16122;50.236;11.734;2023-02-28T12:36:20;16.80;49.70
29031;DHT22;16122;50.236;11.734;2023-02-28T12:38:48;16.80;49.80
29031;DHT22;16122;50.236;11.734;2023-02-28T12:41:58;16.80;50.10
29031;DHT22;16122;50.236;11.734;2023-02-28T12:44:06;16.80;50.00
29031;DHT22;16122;50.236;11.734;2023-02-28T12:46:35;16.80;49.70
29031;DHT22;16122;50.236;11.734;2023-02-28T12:49:05;16.80;49.60
29031;DHT22;16122;50.236;11.734;2023-02-28T12:51:31;16.80;49.60
29031;DHT22;16122;50.236;11.734;2023-02-28T12:56:48;16.80;49.50
29031;DHT22;16122;50.236;11.734;2023-02-28T13:07:10;16.80;49.20
29031;DHT22;16122;50.236;11.734;2023-02-28T13:09:50;16.80;49.40
29031;DHT22;16122;50.236;11.734;2023-02-28T13:12:16;16.80;49.20
29031;DHT22;16122;50.236;11.734;2023-02-28T13:14:42;16.80;49.60
29031;DHT22;16122;50.236;11.734;2023-02-28T13:19:35;16.80;49.70
29031;DHT22;16122;50.236;11.734;2023-02-28T13:22:01;16.80;49.90
29031;DHT22;16122;50.236;11.734;2023-02-28T13:24:44;16.80;50.00
29031;DHT22;16122;50.236;11.734;2023-02-28T13:27:11;16.80;50.30
29031;DHT22;16122;50.236;11.734;2023-02-28T13:29:38;16.80;50.30
29031;DHT22;16122;50.236;11.734;2023-02-28T13:34:33;16.80;50.40
29031;DHT22;16122;50.236;11.734;2023-02-28T14:05:47;16.70;50.60
29031;DHT22;16122;50.236;11.734;2023-02-28T14:08:33;16.70;50.50
29031;DHT22;16122;50.236;11.734;2023-02-28T14:11:15;16.80;50.70
29031;DHT22;16122;50.236;11.734;2023-02-28T14:13:49;16.80;50.70
29031;DHT22;16122;50.236;11.734;2023-02-28T14:16:26;16.80;50.90
29031;DHT22;16122;50.236;11.734;2023-02-28T14:19:09;16.80;51.00
29031;DHT22;16122;50.236;11.734;2023-02-28T14:21:39;16.80;51.10
29031;DHT22;16122;50.236;11.734;2023-02-28T14:29:41;16.70;51.00
29031;DHT22;16122;50.236;11.734;2023-02-28T14:32:21;16.70;51.20
29031;DHT22;16122;50.236;11.734;2023-02-28T14:37:42;16.70;51.20
29031;DHT22;16122;50.236;11.734;2023-02-28T14:40:20;16.80;51.30
29031;DHT22;16122;50.236;11.734;2023-02-28T14:42:54;16.80;51.40
29031;DHT22;16122;50.236;11.734;2023-02-28T14:45:21;16.80;51.30
29031;DHT22;16122;50.236;11.734;2023-02-28T14:47:49;16.80;51.30
29031;DHT22;16122;50.236;11.734;2023-02-28T14:50:34;16.80;51.30
29031;DHT22;16122;50.236;11.734;2023-02-28T14:53:01;16.80;51.50
29031;DHT22;16122;50.236;11.734;2023-02-28T14:55:33;16.80;51.40
29031;DHT22;16122;50.236;11.734;2023-02-28T14:58:04;16.80;51.50
29031;DHT22;16122;50.236;11.734;2023-02-28T15:00:37;16.80;51.30
29031;DHT22;16122;50.236;11.734;2023-02-28T15:03:33;16.80;52.20
29031;DHT22;16122;50.236;11.734;2023-02-28T15:06:04;16.80;51.60
29031;DHT22;16122;50.236;11.734;2023-02-28T15:08:30;16.80;51.80
29031;DHT22;16122;50.236;11.734;2023-02-28T15:11:11;16.80;51.80
29031;DHT22;16122;50.236;11.734;2023-02-28T15:13:46;16.90;52.00
29031;DHT22;16122;50.236;11.734;2023-02-28T15:18:50;16.80;51.60
29031;DHT22;16122;50.236;11.734;2023-02-28T15:21:27;16.90;51.60
29031;DHT22;16122;50.236;11.734;2023-02-28T15:26:36;16.80;51.80
29031;DHT22;16122;50.236;11.734;2023-02-28T15:29:12;16.80;51.70
29031;DHT22;16122;50.236;11.734;2023-02-28T15:31:55;16.80;51.90
29031;DHT22;16122;50.236;11.734;2023-02-28T15:34:42;16.80;51.70
29031;DHT22;16122;50.236;11.734;2023-02-28T15:39:53;16.80;51.70
29031;DHT22;16122;50.236;11.734;2023-02-28T15:42:22;16.80;51.60
29031;DHT22;16122;50.236;11.734;2023-02-28T15:44:48;16.80;51.60
29031;DHT22;16122;50.236;11.734;2023-02-28T15:47:21;16.80;51.50
29031;DHT22;16122;50.236;11.734;2023-02-28T15:49:48;16.80;51.70
29031;DHT22;16122;50.236;11.734;2023-02-28T15:52:19;16.90;51.70
29031;DHT22;16122;50.236;11.734;2023-02-28T15:54:46;16.80;51.50
29031;DHT22;16122;50.236;11.734;2023-02-28T15:57:20;16.80;51.70
29031;DHT22;16122;50.236;11.734;2023-02-28T15:59:59;16.80;51.90
29031;DHT22;16122;50.236;11.734;2023-02-28T16:02:36;16.80;51.30
29031;DHT22;16122;50.236;11.734;2023-02-28T16:07:36;16.80;51.60
29031;DHT22;16122;50.236;11.734;2023-02-28T16:10:03;16.80;51.60
29031;DHT22;16122;50.236;11.734;2023-02-28T16:12:31;16.80;51.50
29031;DHT22;16122;50.236;11.734;2023-02-28T16:14:58;16.70;51.40
29031;DHT22;16122;50.236;11.734;2023-02-28T16:17:28;16.70;51.60
29031;DHT22;16122;50.236;11.734;2023-02-28T16:19:54;16.80;51.50
29031;DHT22;16122;50.236;11.734;2023-02-28T16:22:21;16.80;51.60
29031;DHT22;16122;50.236;11.734;2023-02-28T16:24:47;16.80;51.50
29031;DHT22;16122;50.236;11.734;2023-02-28T16:29:42;16.70;51.50
29031;DHT22;16122;50.236;11.734;2023-02-28T16:32:10;16.70;51.20
29031;DHT22;16122;50.236;11.734;2023-02-28T16:34:37;16.70;51.30
29031;DHT22;16122;50.236;11.734;2023-02-28T16:37:09;16.70;51.30
29031;DHT22;16122;50.236;11.734;2023-02-28T16:39:36;16.70;51.00
29031;DHT22;16122;50.236;11.734;2023-02-28T16:42:01;16.70;51.10
29031;DHT22;16122;50.236;11.734;2023-02-28T16:44:35;16.70;51.10
29031;DHT22;16122;50.236;11.734;2023-02-28T16:47:02;16.60;51.30
29031;DHT22;16122;50.236;11.734;2023-02-28T16:49:28;16.60;51.20
29031;DHT22;16122;50.236;11.734;2023-02-28T16:51:54;16.60;51.20
29031;DHT22;16122;50.236;11.734;2023-02-28T16:54:20;16.60;51.30
29031;DHT22;16122;50.236;11.734;2023-02-28T16:56:48;16.60;51.30
29031;DHT22;16122;50.236;11.734;2023-02-28T16:59:18;16.60;51.40
29031;DHT22;16122;50.236;11.734;2023-02-28T17:01:45;16.60;51.30
29031;DHT22;16122;50.236;11.734;2023-02-28T17:04:11;16.60;51.30
29031;DHT22;16122;50.236;11.734;2023-02-28T17:06:37;16.50;51.10
29031;DHT22;16122;50.236;11.734;2023-02-28T17:09:03;16.50;51.20
29031;DHT22;16122;50.236;11.734;2023-02-28T17:11:29;16.50;51.00
29031;DHT22;16122;50.236;11.734;2023-02-28T17:13:55;16.50;51.20
29031;DHT22;16122;50.236;11.734;2023-02-28T17:16:32;16.50;51.10
29031;DHT22;16122;50.236;11.734;2023-02-28T17:19:01;16.50;51.10
29031;DHT22;16122;50.236;11.734;2023-02-28T17:21:27;16.50;51.00
29031;DHT22;16122;50.236;11.734;2023-02-28T17:23:53;16.50;51.00
29031;DHT22;16122;50.236;11.734;2023-02-28T17:26:21;16.40;50.90
29031;DHT22;16122;50.236;11.734;2023-02-28T17:28:48;16.40;50.90
29031;DHT22;16122;50.236;11.734;2023-02-28T17:31:14;16.40;50.90
29031;DHT22;16122;50.236;11.734;2023-02-28T17:33:40;16.40;51.10
29031;DHT22;16122;50.236;11.734;2023-02-28T17:36:12;16.40;51.00
29031;DHT22;16122;50.236;11.734;2023-02-28T17:38:39;16.40;51.00
29031;DHT22;16122;50.236;11.734;2023-02-28T17:41:04;16.40;51.30
29031;DHT22;16122;50.236;11.734;2023-02-28T17:43:30;16.30;50.90
29031;DHT22;16122;50.236;11.734;2023-02-28T17:45:56;16.30;50.80
29031;DHT22;16122;50.236;11.734;2023-02-28T17:48:24;16.30;50.90